createdAt,value
2022-09-23T00:01:02.736Z,57.32
2022-09-23T00:03:31.395Z,57.06
2022-09-23T00:05:59.557Z,57.27
2022-09-23T00:08:26.223Z,57.83
2022-09-23T00:10:52.904Z,57.79
2022-09-23T00:13:19.568Z,57.95
2022-09-23T00:15:46.837Z,57.76
2022-09-23T00:18:13.712Z,57.43
2022-09-23T00:20:40.590Z,57.38
2022-09-23T00:23:07.221Z,57.54
2022-09-23T00:25:34.112Z,57.66
2022-09-23T00:28:00.718Z,57.85
2022-09-23T00:30:27.318Z,57.85
2022-09-23T00:32:53.994Z,57.92
2022-09-23T00:35:20.560Z,57.93
2022-09-23T00:37:47.061Z,58.06
2022-09-23T00:40:13.782Z,57.98
2022-09-23T00:42:52.132Z,57.91
2022-09-23T00:45:19.523Z,58.27
2022-09-23T00:47:48.272Z,58.26
2022-09-23T00:50:36.685Z,58.34
2022-09-23T00:53:07.865Z,58.44
2022-09-23T00:55:43.051Z,57.87
2022-09-23T00:58:15.627Z,56.76
2022-09-23T01:00:42.605Z,57.34
2022-09-23T01:03:09.565Z,56.78
2022-09-23T01:05:39.999Z,56.56
2022-09-23T01:08:09.142Z,57.06
2022-09-23T01:11:06.722Z,57.39
2022-09-23T01:14:13.662Z,57.07
2022-09-23T01:16:53.682Z,57.16
2022-09-23T01:19:39.215Z,57.94
2022-09-23T01:22:24.837Z,57.65
2022-09-23T01:25:17.083Z,57.26
2022-09-23T01:28:21.691Z,57.43
2022-09-23T01:31:02.142Z,57.59
2022-09-23T01:33:58.694Z,57.57
2022-09-23T01:36:45.656Z,57.40
2022-09-23T01:39:33.896Z,57.31
2022-09-23T01:42:07.367Z,57.13
2022-09-23T01:44:43.067Z,56.82
2022-09-23T01:47:50.325Z,56.45
2022-09-23T01:50:40.903Z,56.10
2022-09-23T01:53:15.291Z,56.39
2022-09-23T01:55:50.048Z,56.04
2022-09-23T01:58:26.296Z,56.62
2022-09-23T02:01:01.993Z,57.17
2022-09-23T02:03:47.283Z,57.43
2022-09-23T02:06:17.179Z,57.62
2022-09-23T02:08:52.800Z,57.04
2022-09-23T02:11:19.442Z,57.24
2022-09-23T02:14:22.541Z,56.86
2022-09-23T02:16:52.086Z,56.75
2022-09-23T02:19:40.791Z,57.23
2022-09-23T02:22:34.553Z,57.07
2022-09-23T02:25:01.243Z,56.88
2022-09-23T02:27:47.356Z,57.69
2022-09-23T02:30:22.631Z,57.90
2022-09-23T02:32:56.577Z,58.09
2022-09-23T02:35:26.243Z,58.43
2022-09-23T02:38:17.652Z,58.72
2022-09-23T02:40:54.000Z,58.67
2022-09-23T02:43:59.756Z,58.34
2022-09-23T02:46:27.719Z,57.90
2022-09-23T02:49:04.140Z,56.96
2022-09-23T02:51:38.160Z,57.09
2022-09-23T02:54:07.512Z,57.94
2022-09-23T02:56:35.438Z,58.22
2022-09-23T02:59:02.312Z,58.20
2022-09-23T03:02:06.462Z,58.64
2022-09-23T03:05:24.033Z,58.48
2022-09-23T03:08:26.067Z,58.03
2022-09-23T03:11:05.781Z,57.85
2022-09-23T03:14:07.471Z,57.89
2022-09-23T03:16:47.975Z,58.29
2022-09-23T03:19:33.882Z,58.25
2022-09-23T03:22:01.103Z,58.41
2022-09-23T03:24:34.096Z,58.58
2022-09-23T03:27:13.849Z,57.84
2022-09-23T03:29:47.801Z,58.12
2022-09-23T03:32:20.818Z,58.83
2022-09-23T03:34:51.460Z,58.31
2022-09-23T03:37:55.398Z,58.14
2022-09-23T03:40:32.567Z,58.58
2022-09-23T03:43:01.401Z,58.86
2022-09-23T03:45:32.426Z,58.63
2022-09-23T03:47:59.021Z,58.47
2022-09-23T03:50:25.753Z,58.54
2022-09-23T03:52:52.339Z,58.65
2022-09-23T03:55:19.650Z,58.47
2022-09-23T03:57:46.420Z,58.72
2022-09-23T04:00:14.694Z,59.36
2022-09-23T04:02:41.835Z,59.03
2022-09-23T04:05:09.669Z,58.81
2022-09-23T04:07:36.161Z,58.63
2022-09-23T04:10:03.349Z,58.89
2022-09-23T04:12:29.885Z,58.73
2022-09-23T04:14:56.425Z,59.06
2022-09-23T04:17:22.959Z,58.20
2022-09-23T04:19:49.471Z,58.78
2022-09-23T04:22:16.041Z,59.44
2022-09-23T04:24:42.660Z,58.97
2022-09-23T04:27:09.215Z,59.21
2022-09-23T04:29:35.854Z,60.17
2022-09-23T04:32:02.715Z,60.39
2022-09-23T04:34:29.308Z,60.21
2022-09-23T04:36:55.820Z,59.62
2022-09-23T04:39:25.344Z,59.35
2022-09-23T04:41:51.935Z,58.75
2022-09-23T04:44:18.862Z,58.95
2022-09-23T04:46:51.246Z,59.04
2022-09-23T04:49:18.287Z,59.35
2022-09-23T04:51:45.011Z,59.81
2022-09-23T04:54:14.322Z,59.78
2022-09-23T04:56:41.287Z,60.33
2022-09-23T04:59:07.974Z,60.89
2022-09-23T05:01:35.232Z,61.27
2022-09-23T05:04:06.909Z,61.19
2022-09-23T05:06:35.037Z,61.22
2022-09-23T05:09:04.045Z,61.28
2022-09-23T05:11:31.804Z,61.51
2022-09-23T05:13:58.700Z,61.35
2022-09-23T05:16:26.817Z,61.46
2022-09-23T05:18:54.555Z,61.13
2022-09-23T05:21:23.448Z,61.14
2022-09-23T05:23:54.264Z,61.15
2022-09-23T05:26:22.328Z,61.50
2022-09-23T05:28:48.990Z,61.51
2022-09-23T05:31:20.592Z,61.23
2022-09-23T05:33:54.439Z,61.58
2022-09-23T05:36:22.238Z,60.82
2022-09-23T05:38:50.245Z,60.89
2022-09-23T05:41:18.131Z,60.67
2022-09-23T05:43:45.519Z,59.97
2022-09-23T05:46:18.321Z,60.89
2022-09-23T05:48:48.047Z,59.59
2022-09-23T05:51:28.854Z,58.28
2022-09-23T05:53:58.401Z,58.66
2022-09-23T05:56:28.002Z,58.78
2022-09-23T05:58:56.805Z,58.63
2022-09-23T06:01:25.738Z,58.27
2022-09-23T06:03:54.166Z,58.09
2022-09-23T06:06:27.573Z,57.77
2022-09-23T06:08:54.118Z,56.77
2022-09-23T06:11:21.633Z,56.67
2022-09-23T06:13:49.425Z,57.09
2022-09-23T06:16:16.508Z,56.28
2022-09-23T06:18:44.698Z,56.27
2022-09-23T06:21:16.904Z,56.51
2022-09-23T06:23:45.204Z,56.25
2022-09-23T06:26:14.192Z,56.70
2022-09-23T06:28:43.337Z,56.54
2022-09-23T06:31:17.400Z,56.14
2022-09-23T06:33:45.473Z,55.90
2022-09-23T06:36:19.294Z,56.21
2022-09-23T06:38:57.428Z,55.47
2022-09-23T06:41:23.927Z,55.09
2022-09-23T06:43:51.549Z,54.93
2022-09-23T06:46:18.960Z,54.58
2022-09-23T06:48:46.423Z,54.91
2022-09-23T06:51:19.230Z,55.31
2022-09-23T06:53:49.390Z,55.37
2022-09-23T06:56:17.807Z,54.88
2022-09-23T06:58:44.502Z,54.23
2022-09-23T07:01:15.997Z,54.20
2022-09-23T07:03:43.920Z,54.37
2022-09-23T07:06:10.926Z,54.23
2022-09-23T07:08:37.749Z,54.39
2022-09-23T07:11:06.959Z,54.09
2022-09-23T07:13:35.491Z,53.60
2022-09-23T07:16:02.978Z,53.46
2022-09-23T07:18:36.714Z,54.35
2022-09-23T07:21:08.471Z,54.38
2022-09-23T07:23:35.195Z,54.88
2022-09-23T07:26:01.924Z,54.79
2022-09-23T07:28:29.142Z,54.74
2022-09-23T07:31:00.434Z,53.13
2022-09-23T07:33:32.440Z,53.92
2022-09-23T07:36:04.254Z,53.74
2022-09-23T07:38:31.558Z,54.27
2022-09-23T07:41:03.074Z,53.70
2022-09-23T07:43:31.944Z,52.94
2022-09-23T07:46:07.096Z,53.21
2022-09-23T07:48:34.850Z,51.60
2022-09-23T07:51:10.879Z,51.41
2022-09-23T07:53:38.082Z,50.31
2022-09-23T07:56:08.513Z,51.06
2022-09-23T07:58:35.628Z,51.69
2022-09-23T08:01:07.838Z,50.52
2022-09-23T08:03:35.260Z,50.18
2022-09-23T08:06:12.074Z,49.18
2022-09-23T08:08:40.726Z,49.43
2022-09-23T08:11:10.245Z,49.96
2022-09-23T08:13:37.407Z,49.04
2022-09-23T08:16:04.578Z,48.46
2022-09-23T08:18:31.259Z,48.78
2022-09-23T08:20:57.941Z,48.49
2022-09-23T08:23:24.583Z,48.52
2022-09-23T08:26:00.916Z,48.16
2022-09-23T08:28:28.560Z,47.99
2022-09-23T08:30:55.792Z,47.84
2022-09-23T08:33:23.735Z,47.61
2022-09-23T08:35:50.934Z,48.08
2022-09-23T08:38:18.498Z,47.66
2022-09-23T08:40:48.912Z,47.95
2022-09-23T08:43:28.220Z,47.78
2022-09-23T08:45:57.513Z,47.19
2022-09-23T08:48:30.678Z,47.08
2022-09-23T08:51:06.518Z,47.23
2022-09-23T08:53:38.465Z,46.50
2022-09-23T08:56:11.960Z,46.39
2022-09-23T08:59:07.889Z,46.43
2022-09-23T09:01:56.885Z,46.51
2022-09-23T09:04:33.075Z,45.85
2022-09-23T09:10:06.233Z,45.30
2022-09-23T09:13:07.611Z,45.28
2022-09-23T09:15:46.025Z,44.29
2022-09-23T09:18:22.054Z,43.36
2022-09-23T09:21:09.216Z,43.49
2022-09-23T09:23:50.060Z,43.47
2022-09-23T09:26:24.335Z,42.99
2022-09-23T09:29:30.883Z,42.36
2022-09-23T09:31:57.656Z,42.11
2022-09-23T09:34:24.186Z,42.04
2022-09-23T09:37:06.750Z,40.97
2022-09-23T09:39:35.681Z,41.60
2022-09-23T09:42:04.331Z,41.21
2022-09-23T09:44:37.152Z,40.70
2022-09-23T09:47:03.890Z,40.59
2022-09-23T09:49:48.597Z,39.71
2022-09-23T09:52:26.106Z,40.07
2022-09-23T09:54:55.570Z,39.26
2022-09-23T09:57:37.300Z,38.82
2022-09-23T10:00:23.079Z,37.64
2022-09-23T10:03:05.086Z,37.47
2022-09-23T10:05:47.079Z,37.33
2022-09-23T10:08:35.278Z,37.13
2022-09-23T10:11:19.056Z,37.18
2022-09-23T10:14:27.024Z,36.95
2022-09-23T10:17:05.357Z,36.22
2022-09-23T10:19:34.840Z,36.59
2022-09-23T10:22:16.807Z,36.50
2022-09-23T10:24:52.752Z,36.36
2022-09-23T10:27:34.605Z,35.71
2022-09-23T10:30:07.315Z,35.80
2022-09-23T10:32:44.199Z,35.20
2022-09-23T10:35:13.618Z,34.75
2022-09-23T10:37:49.046Z,34.66
2022-09-23T10:40:37.154Z,34.73
2022-09-23T10:43:46.984Z,34.55
2022-09-23T10:46:39.797Z,33.92
2022-09-23T10:49:25.274Z,33.69
2022-09-23T10:52:25.951Z,34.07
2022-09-23T10:55:04.597Z,34.00
2022-09-23T10:58:14.183Z,33.21
2022-09-23T11:00:59.201Z,33.12
2022-09-23T11:03:38.501Z,32.26
2022-09-23T11:06:14.339Z,31.62
2022-09-23T11:08:58.742Z,31.52
2022-09-23T11:11:43.887Z,31.45
2022-09-23T11:14:19.449Z,31.45
2022-09-23T11:17:05.819Z,30.79
2022-09-23T11:19:56.002Z,30.91
2022-09-23T11:22:37.983Z,31.66
2022-09-23T11:25:07.519Z,31.16
2022-09-23T11:28:11.711Z,30.30
2022-09-23T11:31:17.033Z,30.40
2022-09-23T11:33:49.688Z,30.19
2022-09-23T11:36:30.568Z,30.10
2022-09-23T11:39:04.323Z,30.50
2022-09-23T11:41:35.540Z,30.19
2022-09-23T11:44:18.126Z,29.25
2022-09-23T11:46:54.605Z,29.05
2022-09-23T11:49:58.448Z,28.93
2022-09-23T11:52:32.016Z,28.90
2022-09-23T11:55:22.319Z,29.34
2022-09-23T11:57:53.184Z,30.20
2022-09-23T12:00:34.216Z,30.43
2022-09-23T12:03:18.050Z,29.72
2022-09-23T12:06:12.704Z,30.38
2022-09-23T12:08:39.268Z,30.84
2022-09-23T12:11:25.541Z,30.71
2022-09-23T12:14:09.763Z,31.23
2022-09-23T12:16:43.092Z,31.09
2022-09-23T12:19:40.371Z,31.21
2022-09-23T12:22:24.149Z,31.36
2022-09-23T12:25:17.623Z,31.94
2022-09-23T12:27:48.103Z,31.57
2022-09-23T12:30:42.452Z,31.83
2022-09-23T12:33:21.544Z,32.44
2022-09-23T12:35:48.662Z,32.65
2022-09-23T12:38:25.304Z,32.22
2022-09-23T12:40:55.061Z,32.39
2022-09-23T12:43:34.500Z,31.91
2022-09-23T12:46:25.657Z,32.38
2022-09-23T12:48:57.404Z,32.99
2022-09-23T12:51:26.345Z,32.96
2022-09-23T12:53:56.183Z,33.13
2022-09-23T12:56:28.655Z,33.06
2022-09-23T12:59:17.405Z,32.39
2022-09-23T13:01:45.042Z,32.90
2022-09-23T13:04:54.376Z,32.11
2022-09-23T13:07:32.323Z,33.27
2022-09-23T13:10:18.805Z,32.79
2022-09-23T13:12:46.662Z,32.68
2022-09-23T13:15:29.926Z,33.01
2022-09-23T13:18:15.427Z,32.97
2022-09-23T13:20:42.118Z,33.35
2022-09-23T13:23:14.807Z,33.54
2022-09-23T13:25:43.364Z,33.03
2022-09-23T13:28:30.195Z,32.95
2022-09-23T13:30:58.548Z,33.45
2022-09-23T13:33:40.491Z,33.08
2022-09-23T13:36:15.718Z,32.59
2022-09-23T13:38:42.926Z,33.07
2022-09-23T13:41:28.867Z,32.77
2022-09-23T13:44:00.540Z,32.44
2022-09-23T13:46:30.051Z,32.92
2022-09-23T13:48:56.893Z,32.75
2022-09-23T13:51:50.204Z,33.45
2022-09-23T13:54:29.072Z,32.98
2022-09-23T13:56:58.942Z,32.95
2022-09-23T13:59:28.378Z,32.21
2022-09-23T14:02:14.205Z,32.62
2022-09-23T14:04:41.073Z,32.80
2022-09-23T14:07:09.605Z,32.82
2022-09-23T14:09:37.736Z,33.05
2022-09-23T14:12:06.652Z,33.39
2022-09-23T14:14:35.040Z,33.42
2022-09-23T14:17:02.726Z,32.95
2022-09-23T14:19:29.399Z,33.16
2022-09-23T14:21:56.445Z,33.39
2022-09-23T14:24:30.414Z,33.53
2022-09-23T14:27:10.931Z,33.18
2022-09-23T14:29:39.709Z,33.62
2022-09-23T14:32:11.017Z,33.38
2022-09-23T14:35:06.716Z,33.85
2022-09-23T14:37:55.086Z,33.33
2022-09-23T14:40:30.201Z,33.48
2022-09-23T14:43:23.923Z,33.52
2022-09-23T14:45:54.800Z,33.66
2022-09-23T14:48:25.704Z,33.94
2022-09-23T14:50:58.115Z,34.12
2022-09-23T14:53:46.394Z,34.83
2022-09-23T14:56:16.024Z,34.40
2022-09-23T14:58:51.719Z,33.83
2022-09-23T15:01:39.440Z,33.97
2022-09-23T15:04:11.725Z,34.01
2022-09-23T15:06:40.399Z,34.02
2022-09-23T15:09:07.664Z,34.12
2022-09-23T15:11:36.124Z,34.42
2022-09-23T15:14:33.147Z,34.55
2022-09-23T15:16:50.770Z,34.79
2022-09-23T15:19:20.938Z,35.19
2022-09-23T15:21:52.656Z,34.43
2022-09-23T15:24:43.382Z,34.35
2022-09-23T15:27:21.139Z,34.73
2022-09-23T15:29:48.611Z,35.39
2022-09-23T15:32:15.285Z,35.87
2022-09-23T15:34:42.175Z,35.15
2022-09-23T15:37:12.511Z,34.57
2022-09-23T15:39:39.186Z,34.75
2022-09-23T15:42:07.180Z,34.77
2022-09-23T15:44:35.351Z,35.00
2022-09-23T15:47:02.452Z,34.76
2022-09-23T15:49:42.025Z,34.84
2022-09-23T15:52:10.582Z,35.24
2022-09-23T15:54:37.890Z,35.03
2022-09-23T15:57:05.771Z,35.19
2022-09-23T15:59:33.003Z,35.23
2022-09-23T16:02:05.749Z,35.37
2022-09-23T16:04:32.401Z,35.81
2022-09-23T16:06:59.120Z,35.67
2022-09-23T16:09:28.226Z,35.81
2022-09-23T16:11:55.149Z,35.91
2022-09-23T16:14:21.771Z,36.15
2022-09-23T16:16:48.396Z,36.29
2022-09-23T16:19:16.285Z,36.15
2022-09-23T16:21:43.251Z,36.40
2022-09-23T16:24:17.366Z,36.55
2022-09-23T16:26:47.068Z,36.31
2022-09-23T16:29:15.007Z,36.32
2022-09-23T16:31:43.250Z,36.60
2022-09-23T16:34:09.837Z,36.32
2022-09-23T16:36:40.612Z,36.34
2022-09-23T16:39:10.498Z,36.58
2022-09-23T16:41:37.193Z,36.69
2022-09-23T16:44:06.217Z,36.78
2022-09-23T16:46:33.785Z,36.86
2022-09-23T16:49:00.890Z,37.07
2022-09-23T16:51:29.928Z,37.00
2022-09-23T16:53:58.441Z,37.50
2022-09-23T16:56:29.240Z,37.66
2022-09-23T16:59:03.822Z,37.80
2022-09-23T17:01:50.837Z,38.12
2022-09-23T17:04:19.401Z,38.23
2022-09-23T17:06:50.671Z,38.36
2022-09-23T17:09:20.026Z,38.77
2022-09-23T17:11:52.988Z,39.04
2022-09-23T17:14:19.587Z,39.76
2022-09-23T17:16:46.068Z,39.81
2022-09-23T17:19:13.920Z,40.03
2022-09-23T17:21:40.499Z,40.18
2022-09-23T17:24:07.504Z,40.31
2022-09-23T17:26:34.629Z,39.96
2022-09-23T17:29:02.080Z,39.90
2022-09-23T17:31:29.077Z,40.40
2022-09-23T17:33:57.344Z,40.75
2022-09-23T17:36:24.552Z,40.83
2022-09-23T17:38:54.507Z,41.06
2022-09-23T17:41:21.822Z,40.81
2022-09-23T17:43:53.822Z,40.86
2022-09-23T17:46:20.583Z,40.80
2022-09-23T17:48:47.113Z,40.88
2022-09-23T17:51:16.112Z,40.88
2022-09-23T17:53:45.526Z,41.09
2022-09-23T17:56:21.125Z,41.24
2022-09-23T17:58:49.523Z,41.59
2022-09-23T18:01:19.732Z,41.17
2022-09-23T18:03:47.378Z,41.33
2022-09-23T18:06:16.682Z,41.44
2022-09-23T18:08:45.670Z,41.38
2022-09-23T18:11:14.838Z,41.64
2022-09-23T18:13:41.810Z,41.86
2022-09-23T18:16:08.498Z,42.26
2022-09-23T18:18:34.994Z,42.01
2022-09-23T18:21:02.812Z,42.18
2022-09-23T18:23:29.764Z,42.49
2022-09-23T18:25:56.717Z,42.46
2022-09-23T18:28:23.267Z,42.66
2022-09-23T18:30:54.709Z,42.88
2022-09-23T18:33:22.975Z,42.96
2022-09-23T18:35:50.226Z,43.28
2022-09-23T18:38:16.757Z,43.07
2022-09-23T18:40:58.283Z,43.45
2022-09-23T18:43:32.714Z,43.43
2022-09-23T18:46:04.012Z,43.58
2022-09-23T18:48:51.180Z,43.69
2022-09-23T18:51:19.739Z,43.64
2022-09-23T18:53:47.961Z,43.58
2022-09-23T18:56:17.413Z,43.82
2022-09-23T18:58:48.367Z,44.33
2022-09-23T19:01:15.930Z,44.38
2022-09-23T19:03:42.912Z,44.70
2022-09-23T19:06:11.950Z,44.83
2022-09-23T19:08:40.051Z,44.95
2022-09-23T19:11:09.328Z,44.77
2022-09-23T19:13:36.116Z,44.96
2022-09-23T19:16:16.662Z,45.25
2022-09-23T19:18:46.541Z,45.57
2022-09-23T19:21:14.529Z,45.34
2022-09-23T19:23:48.973Z,45.92
2022-09-23T19:26:18.628Z,45.79
2022-09-23T19:28:50.079Z,46.01
2022-09-23T19:31:20.194Z,46.03
2022-09-23T19:34:01.214Z,46.11
2022-09-23T19:36:35.259Z,46.09
2022-09-23T19:39:22.498Z,46.17
2022-09-23T19:41:50.516Z,46.54
2022-09-23T19:44:17.913Z,46.30
2022-09-23T19:46:46.262Z,46.32
2022-09-23T19:49:13.756Z,46.64
2022-09-23T19:51:40.407Z,46.84
2022-09-23T19:54:08.133Z,46.70
2022-09-23T19:56:35.628Z,46.73
2022-09-23T19:59:05.827Z,47.14
2022-09-23T20:01:33.660Z,47.04
2022-09-23T20:04:00.963Z,47.18
2022-09-23T20:06:32.636Z,47.51
2022-09-23T20:08:59.567Z,47.60
2022-09-23T20:11:28.516Z,47.38
2022-09-23T20:14:01.843Z,47.50
2022-09-23T20:16:32.339Z,47.81
2022-09-23T20:19:00.377Z,47.81
2022-09-23T20:21:28.457Z,48.14
2022-09-23T20:23:55.383Z,48.35
2022-09-23T20:26:40.594Z,48.27
2022-09-23T20:29:09.020Z,48.28
2022-09-23T20:31:35.877Z,48.72
2022-09-23T20:34:05.610Z,48.98
2022-09-23T20:36:34.099Z,49.73
2022-09-23T20:39:02.668Z,49.87
2022-09-23T20:41:31.253Z,49.92
2022-09-23T20:44:01.339Z,50.22
2022-09-23T20:46:28.942Z,49.46
2022-09-23T20:48:56.780Z,49.27
2022-09-23T20:51:24.705Z,49.12
2022-09-23T20:53:52.977Z,49.48
2022-09-23T20:56:21.088Z,50.23
2022-09-23T20:58:48.661Z,50.45
2022-09-23T21:01:16.085Z,50.47
2022-09-23T21:03:45.099Z,50.68
2022-09-23T21:06:14.512Z,50.88
2022-09-23T21:08:42.107Z,51.21
2022-09-23T21:11:11.848Z,51.56
2022-09-23T21:13:38.846Z,51.51
2022-09-23T21:16:08.316Z,51.81
2022-09-23T21:18:35.280Z,51.30
2022-09-23T21:21:02.063Z,51.67
2022-09-23T21:23:33.960Z,51.52
2022-09-23T21:26:06.724Z,51.34
2022-09-23T21:28:37.960Z,51.16
2022-09-23T21:31:11.036Z,51.28
2022-09-23T21:33:38.883Z,51.70
2022-09-23T21:36:07.396Z,52.10
2022-09-23T21:38:35.904Z,52.07
2022-09-23T21:41:08.015Z,52.10
2022-09-23T21:43:38.408Z,52.33
2022-09-23T21:46:07.162Z,51.41
2022-09-23T21:48:36.036Z,51.68
2022-09-23T21:51:08.317Z,50.70
2022-09-23T21:53:40.237Z,50.86
2022-09-23T21:56:14.023Z,51.22
2022-09-23T21:58:43.865Z,51.85
2022-09-23T22:01:16.139Z,52.30
2022-09-23T22:03:44.012Z,53.11
2022-09-23T22:06:21.595Z,52.83
2022-09-23T22:08:59.849Z,52.98
2022-09-23T22:11:50.743Z,53.15
2022-09-23T22:14:19.629Z,52.85
2022-09-23T22:16:46.938Z,53.03
2022-09-23T22:19:15.062Z,53.20
2022-09-23T22:21:43.971Z,53.20
2022-09-23T22:24:11.743Z,53.57
2022-09-23T22:26:41.239Z,53.27
2022-09-23T22:29:28.085Z,53.61
2022-09-23T22:32:13.743Z,52.54
2022-09-23T22:34:53.245Z,53.26
2022-09-23T22:37:25.582Z,53.26
2022-09-23T22:39:52.432Z,53.58
2022-09-23T22:42:21.269Z,53.76
2022-09-23T22:44:48.764Z,53.59
2022-09-23T22:47:18.056Z,53.59
2022-09-23T22:49:46.024Z,53.36
2022-09-23T22:52:12.734Z,53.48
2022-09-23T22:54:39.769Z,52.89
2022-09-23T22:57:08.025Z,53.01
2022-09-23T22:59:35.783Z,52.99
2022-09-23T23:02:03.123Z,53.19
2022-09-23T23:04:30.515Z,52.77
2022-09-23T23:07:03.145Z,53.24
2022-09-23T23:09:29.613Z,53.50
2022-09-23T23:11:59.378Z,53.76
2022-09-23T23:14:27.942Z,54.08
2022-09-23T23:16:55.117Z,54.15
2022-09-23T23:19:21.771Z,55.02
2022-09-23T23:21:50.373Z,54.61
2022-09-23T23:24:17.990Z,54.88
2022-09-23T23:26:45.620Z,54.32
2022-09-23T23:29:13.628Z,54.27
2022-09-23T23:31:40.690Z,54.17
2022-09-23T23:34:11.869Z,54.55
2022-09-23T23:36:39.464Z,54.02
2022-09-23T23:39:07.431Z,54.27
2022-09-23T23:41:34.175Z,54.27
2022-09-23T23:44:01.293Z,54.53
2022-09-23T23:46:30.163Z,54.21
2022-09-23T23:48:57.610Z,54.77
2022-09-23T23:51:27.878Z,54.57
2022-09-23T23:53:54.999Z,54.78
2022-09-23T23:56:24.004Z,55.06
2022-09-23T23:58:58.691Z,55.31
